Terminal Aerodrome Forecast
Issued by NWS

Home | Current Version | Previous Version | Text Only | Print | Product List | Glossary On
Versions: 1 2 3 4 5 6 7 8 9 10 11 12
504
FTUS46 KSEW 211122
TAFHQM
TAF
KHQM 211122Z 2112/2212 23012G22KT P6SM -SHRA SCT018 BKN040
     FM211600 23012KT P6SM VCSH SCT025 BKN040
     FM212000 25012G20KT P6SM SCT025
     FM220300 29006KT P6SM SCT200=

USA.gov is the U.S. government's official web portal to all federal, state and local government web resources and services.